Arroyo Grande, California
Current Conditions -  °F | °C
As of 12:56 AM on Friday 19 Dec 2014 (Local Time) from KSBP Reporting Station
Overcast Overcast  
Wind Chill: 12°   Ceiling: 2800
Heat Index: 12°   Visibility: 10mi
Dew Point: 10°   Wind: 5mph
Humidity: 89%   Direction: 170°S
Pressure: 30.19"   Gusts: NA
Location:  35.12°N, 120.57°W
Report Text: KSBP 190856Z AUTO 17004KT 10SM OVC028 12/10 A3019 RMK AO2 SLP224 T01170100 58007
Loading
Personal Weather Stations






























Interactive Weather Map New forecast layout! Learn more

10-Day Weather Forecast

Advertisements
Track Severe Weather on mobile